createdAt,value
2022-08-14T00:01:24.399Z,6.05
2022-08-14T00:04:31.786Z,7.63
2022-08-14T00:07:16.493Z,6.28
2022-08-14T00:10:49.954Z,4.30
2022-08-14T00:13:08.921Z,4.93
2022-08-14T00:16:00.274Z,4.53
2022-08-14T00:19:06.199Z,4.13
2022-08-14T00:21:52.491Z,5.10
2022-08-14T00:24:37.812Z,4.75
2022-08-14T00:27:23.643Z,4.20
2022-08-14T00:30:14.324Z,4.80
2022-08-14T00:33:16.004Z,4.68
2022-08-14T00:36:46.989Z,5.40
2022-08-14T00:39:09.328Z,4.63
2022-08-14T00:41:55.405Z,4.60
2022-08-14T00:44:41.067Z,4.85
2022-08-14T00:47:28.491Z,5.50
2022-08-14T00:50:18.543Z,4.80
2022-08-14T00:53:10.504Z,4.78
2022-08-14T00:55:57.555Z,5.15
2022-08-14T00:58:45.490Z,4.68
2022-08-14T01:01:35.975Z,5.55
2022-08-14T01:04:38.419Z,4.97
2022-08-14T01:07:29.806Z,5.00
2022-08-14T01:10:45.910Z,4.85
2022-08-14T01:13:42.702Z,5.60
2022-08-14T01:16:30.973Z,6.32
2022-08-14T01:19:35.817Z,4.82
2022-08-14T01:22:26.609Z,5.13
2022-08-14T01:25:12.305Z,6.70
2022-08-14T01:27:58.773Z,5.97
2022-08-14T01:30:44.804Z,5.15
2022-08-14T01:33:30.609Z,5.85
2022-08-14T01:36:39.138Z,5.43
2022-08-14T01:39:25.858Z,5.15
2022-08-14T01:42:11.577Z,4.88
2022-08-14T01:45:17.911Z,5.25
2022-08-14T01:48:13.818Z,4.97
2022-08-14T01:51:03.120Z,5.10
2022-08-14T01:53:55.905Z,6.00
2022-08-14T01:56:44.932Z,5.57
2022-08-14T01:59:38.306Z,5.53
2022-08-14T02:02:23.960Z,5.07
2022-08-14T02:05:14.358Z,5.47
2022-08-14T02:08:08.761Z,5.13
2022-08-14T02:11:16.196Z,5.10
2022-08-14T02:14:07.923Z,5.05
2022-08-14T02:16:54.214Z,4.85
2022-08-14T02:19:40.917Z,6.22
2022-08-14T02:22:32.519Z,5.80
2022-08-14T02:25:18.597Z,5.68
2022-08-14T02:28:22.590Z,6.18
2022-08-14T02:31:10.789Z,5.50
2022-08-14T02:34:03.998Z,5.35
2022-08-14T02:37:06.890Z,4.80
2022-08-14T02:39:52.964Z,5.65
2022-08-14T02:42:39.297Z,6.07
2022-08-14T02:45:33.395Z,5.93
2022-08-14T02:49:03.202Z,6.00
2022-08-14T02:51:38.241Z,5.95
2022-08-14T02:54:24.943Z,5.72
2022-08-14T02:57:16.499Z,6.18
2022-08-14T03:00:18.899Z,6.72
2022-08-14T03:03:07.653Z,5.50
2022-08-14T03:05:54.284Z,5.25
2022-08-14T03:08:46.069Z,7.63
2022-08-14T03:11:35.222Z,5.70
2022-08-14T03:14:22.621Z,6.10
2022-08-14T03:17:10.380Z,5.55
2022-08-14T03:19:55.503Z,5.88
2022-08-14T03:22:42.179Z,6.30
2022-08-14T03:25:34.293Z,7.53
2022-08-14T03:28:33.091Z,6.30
2022-08-14T03:31:22.391Z,7.05
2022-08-14T03:34:24.634Z,6.05
2022-08-14T03:37:29.018Z,8.18
2022-08-14T03:40:24.200Z,6.80
2022-08-14T03:43:10.422Z,5.88
2022-08-14T03:45:55.807Z,6.28
2022-08-14T03:48:43.155Z,5.20
2022-08-14T03:51:28.826Z,6.00
2022-08-14T03:54:15.796Z,5.70
2022-08-14T03:57:06.000Z,5.90
2022-08-14T03:59:51.589Z,6.15
2022-08-14T04:02:47.081Z,6.40
2022-08-14T04:05:43.227Z,6.20
2022-08-14T04:08:41.923Z,6.13
2022-08-14T04:11:28.800Z,6.35
2022-08-14T04:14:16.534Z,5.82
2022-08-14T04:17:01.875Z,6.93
2022-08-14T04:19:47.843Z,6.57
2022-08-14T04:22:34.088Z,6.10
2022-08-14T04:25:19.767Z,6.03
2022-08-14T04:28:07.673Z,6.38
2022-08-14T04:31:15.295Z,6.25
2022-08-14T04:34:01.483Z,6.22
2022-08-14T04:37:07.302Z,7.05
2022-08-14T04:40:13.417Z,6.38
2022-08-14T04:43:19.315Z,6.60
2022-08-14T04:46:10.029Z,7.00
2022-08-14T04:48:59.793Z,6.35
2022-08-14T04:51:55.359Z,6.53
2022-08-14T04:54:42.622Z,6.72
2022-08-14T04:57:28.992Z,6.07
2022-08-14T05:00:16.193Z,5.78
2022-08-14T05:03:07.371Z,6.63
2022-08-14T05:05:57.804Z,6.72
2022-08-14T05:08:57.425Z,6.60
2022-08-14T05:14:46.056Z,6.55
2022-08-14T05:17:44.207Z,6.03
2022-08-14T05:21:57.919Z,8.10
2022-08-14T05:23:49.034Z,6.43
2022-08-14T05:26:34.509Z,6.60
2022-08-14T05:29:20.177Z,6.10
2022-08-14T05:32:07.289Z,5.75
2022-08-14T05:34:52.483Z,5.82
2022-08-14T05:37:39.540Z,6.65
2022-08-14T05:40:31.727Z,5.78
2022-08-14T05:43:18.057Z,6.07
2022-08-14T05:46:03.820Z,7.70
2022-08-14T05:48:57.328Z,6.13
2022-08-14T05:51:44.762Z,5.50
2022-08-14T05:54:35.763Z,6.07
2022-08-14T05:57:21.400Z,6.75
2022-08-14T06:00:07.536Z,5.80
2022-08-14T06:02:56.184Z,5.70
2022-08-14T06:05:47.911Z,5.93
2022-08-14T06:08:41.806Z,5.78
2022-08-14T06:11:30.523Z,6.80
2022-08-14T06:14:21.520Z,5.97
2022-08-14T06:17:09.544Z,6.95
2022-08-14T06:20:01.261Z,5.78
2022-08-14T06:22:47.407Z,6.15
2022-08-14T06:25:34.943Z,5.97
2022-08-14T06:28:27.514Z,6.07
2022-08-14T06:31:13.793Z,6.20
2022-08-14T06:35:03.522Z,6.45
2022-08-14T06:37:05.914Z,5.40
2022-08-14T06:39:51.236Z,5.75
2022-08-14T06:42:38.384Z,5.63
2022-08-14T06:45:26.961Z,5.00
2022-08-14T06:48:24.219Z,5.70
2022-08-14T06:51:09.640Z,5.47
2022-08-14T06:53:57.051Z,5.93
2022-08-14T06:56:44.215Z,5.30
2022-08-14T06:59:39.605Z,5.53
2022-08-14T07:02:44.641Z,5.15
2022-08-14T07:05:55.711Z,5.05
2022-08-14T07:08:44.822Z,6.47
2022-08-14T07:11:33.785Z,5.28
2022-08-14T07:14:20.181Z,6.13
2022-08-14T07:17:06.520Z,6.07
2022-08-14T07:19:52.936Z,6.45
2022-08-14T07:22:49.980Z,5.50
2022-08-14T07:25:43.705Z,5.50
2022-08-14T07:28:33.025Z,6.50
2022-08-14T07:31:18.397Z,5.55
2022-08-14T07:34:05.838Z,5.43
2022-08-14T07:37:00.700Z,5.93
2022-08-14T07:39:47.155Z,6.07
2022-08-14T07:42:32.981Z,6.18
2022-08-14T07:45:18.908Z,6.05
2022-08-14T07:48:04.993Z,5.85
2022-08-14T07:50:50.940Z,7.93
2022-08-14T07:53:40.446Z,6.43
2022-08-14T07:56:47.388Z,6.03
2022-08-14T07:59:41.375Z,6.45
2022-08-14T08:02:33.567Z,6.85
2022-08-14T08:05:21.417Z,6.85
2022-08-14T08:08:08.381Z,5.80
2022-08-14T08:11:14.890Z,6.40
2022-08-14T08:14:06.572Z,8.23
2022-08-14T08:16:57.048Z,7.03
2022-08-14T08:19:42.760Z,6.72
2022-08-14T08:22:32.650Z,6.40
2022-08-14T08:25:19.061Z,7.03
2022-08-14T08:28:21.846Z,9.13
2022-08-14T08:31:08.219Z,7.82
2022-08-14T08:33:54.071Z,7.28
2022-08-14T08:36:46.621Z,7.20
2022-08-14T08:40:02.975Z,7.75
2022-08-14T08:42:53.167Z,6.68
2022-08-14T08:45:38.789Z,8.80
2022-08-14T08:48:31.485Z,8.13
2022-08-14T08:51:22.705Z,8.82
2022-08-14T08:54:18.428Z,7.85
2022-08-14T08:57:14.286Z,7.85
2022-08-14T09:00:02.433Z,9.95
2022-08-14T09:03:07.108Z,6.85
2022-08-14T09:06:04.129Z,7.28
2022-08-14T09:09:19.550Z,8.07
2022-08-14T09:12:07.217Z,8.35
2022-08-14T09:15:00.515Z,7.47
2022-08-14T09:17:46.359Z,9.43
2022-08-14T09:20:34.596Z,9.55
2022-08-14T09:23:34.523Z,9.50
2022-08-14T09:26:21.077Z,7.45
2022-08-14T09:29:07.589Z,8.10
2022-08-14T09:32:00.642Z,7.47
2022-08-14T09:35:10.309Z,6.93
2022-08-14T09:38:10.883Z,8.55
2022-08-14T09:42:20.823Z,7.00
2022-08-14T09:45:08.713Z,7.10
2022-08-14T09:47:57.242Z,6.22
2022-08-14T09:50:48.980Z,6.68
2022-08-14T09:54:19.555Z,6.15
2022-08-14T09:56:56.601Z,6.25
2022-08-14T09:59:46.472Z,6.38
2022-08-14T10:02:35.606Z,6.82
2022-08-14T10:05:39.236Z,6.57
2022-08-14T10:08:26.830Z,9.27
2022-08-14T10:11:34.821Z,6.47
2022-08-14T10:14:34.914Z,6.22
2022-08-14T10:17:27.611Z,7.25
2022-08-14T10:20:41.045Z,6.85
2022-08-14T10:23:38.828Z,6.35
2022-08-14T10:26:28.278Z,5.93
2022-08-14T10:29:18.907Z,6.78
2022-08-14T10:32:18.031Z,6.35
2022-08-14T10:35:10.895Z,7.40
2022-08-14T10:38:01.491Z,7.07
2022-08-14T10:40:52.051Z,6.72
2022-08-14T10:43:45.818Z,6.70
2022-08-14T10:47:41.066Z,6.22
2022-08-14T10:50:16.860Z,7.05
2022-08-14T10:53:07.852Z,6.63
2022-08-14T10:55:59.372Z,7.22
2022-08-14T10:58:49.531Z,8.30
2022-08-14T11:01:40.956Z,6.00
2022-08-14T11:04:30.173Z,6.00
2022-08-14T11:07:21.377Z,6.68
2022-08-14T11:10:13.060Z,6.20
2022-08-14T11:15:46.455Z,6.00
2022-08-14T11:18:36.290Z,6.00
2022-08-14T11:21:30.338Z,5.75
2022-08-14T11:24:55.257Z,5.90
2022-08-14T11:27:33.346Z,5.20
2022-08-14T11:30:51.588Z,4.97
2022-08-14T11:33:32.699Z,5.15
2022-08-14T11:36:23.673Z,5.50
2022-08-14T11:39:09.941Z,6.68
2022-08-14T11:41:58.001Z,5.28
2022-08-14T11:44:45.396Z,6.60
2022-08-14T11:47:35.551Z,4.70
2022-08-14T11:50:37.318Z,7.90
2022-08-14T11:53:30.237Z,4.70
2022-08-14T11:56:17.701Z,5.22
2022-08-14T11:59:03.989Z,4.43
2022-08-14T12:01:49.333Z,4.95
2022-08-14T12:04:35.224Z,4.25
2022-08-14T12:07:22.224Z,4.28
2022-08-14T12:10:27.293Z,5.10
2022-08-14T12:13:18.981Z,4.43
2022-08-14T12:16:15.281Z,4.20
2022-08-14T12:19:06.591Z,4.45
2022-08-14T12:21:54.876Z,4.70
2022-08-14T12:24:44.464Z,3.47
2022-08-14T12:27:52.733Z,4.22
2022-08-14T12:30:45.156Z,3.28
2022-08-14T12:33:33.039Z,3.80
2022-08-14T12:36:21.047Z,3.30
2022-08-14T12:39:23.952Z,4.45
2022-08-14T12:42:11.642Z,3.72
2022-08-14T12:45:17.255Z,3.33
2022-08-14T12:48:21.135Z,3.83
2022-08-14T12:51:27.048Z,3.58
2022-08-14T12:54:27.286Z,3.67
2022-08-14T12:57:18.973Z,3.65
2022-08-14T13:00:23.219Z,3.90
2022-08-14T13:03:09.358Z,3.53
2022-08-14T13:05:55.829Z,3.25
2022-08-14T13:08:52.986Z,3.20
2022-08-14T13:11:58.997Z,3.85
2022-08-14T13:15:00.183Z,3.40
2022-08-14T13:17:51.698Z,4.40
2022-08-14T13:20:37.559Z,3.30
2022-08-14T13:23:31.652Z,2.92
2022-08-14T13:26:17.983Z,3.15
2022-08-14T13:29:06.539Z,3.05
2022-08-14T13:31:57.858Z,2.30
2022-08-14T13:34:46.093Z,3.15
2022-08-14T13:37:31.600Z,2.58
2022-08-14T13:40:20.232Z,4.30
2022-08-14T13:43:13.005Z,3.30
2022-08-14T13:46:00.236Z,4.22
2022-08-14T13:48:47.740Z,4.25
2022-08-14T13:51:46.257Z,4.20
2022-08-14T13:54:34.296Z,4.70
2022-08-14T13:57:20.435Z,4.20
2022-08-14T14:00:17.834Z,4.10
2022-08-14T14:03:06.097Z,5.88
2022-08-14T14:05:54.255Z,4.00
2022-08-14T14:08:47.913Z,3.80
2022-08-14T14:11:33.686Z,3.72
2022-08-14T14:14:44.702Z,4.47
2022-08-14T14:17:29.064Z,4.28
2022-08-14T14:20:34.940Z,4.10
2022-08-14T14:23:23.416Z,3.90
2022-08-14T14:26:13.952Z,5.57
2022-08-14T14:29:01.606Z,5.40
2022-08-14T14:31:49.334Z,4.75
2022-08-14T14:34:38.731Z,4.75
2022-08-14T14:37:24.819Z,4.30
2022-08-14T14:40:54.603Z,5.30
2022-08-14T14:43:26.283Z,4.30
2022-08-14T14:46:13.297Z,4.30
2022-08-14T14:49:03.935Z,4.75
2022-08-14T14:51:51.161Z,5.30
2022-08-14T14:54:39.306Z,5.22
2022-08-14T14:57:35.184Z,4.50
2022-08-14T15:00:23.275Z,4.53
2022-08-14T15:03:10.430Z,4.93
2022-08-14T15:05:56.322Z,4.88
2022-08-14T15:08:56.269Z,4.90
2022-08-14T15:11:47.059Z,4.22
2022-08-14T15:14:57.068Z,6.82
2022-08-14T15:17:40.885Z,5.18
2022-08-14T15:20:29.824Z,4.53
2022-08-14T15:23:16.217Z,4.57
2022-08-14T15:26:02.676Z,4.25
2022-08-14T15:29:03.009Z,5.03
2022-08-14T15:31:49.919Z,4.68
2022-08-14T15:34:44.287Z,4.00
2022-08-14T15:37:35.440Z,4.93
2022-08-14T15:40:28.055Z,3.92
2022-08-14T15:43:13.468Z,3.85
2022-08-14T15:46:02.721Z,4.72
2022-08-14T15:48:48.825Z,3.72
2022-08-14T15:51:35.403Z,3.30
2022-08-14T15:54:31.515Z,3.30
2022-08-14T15:57:17.403Z,3.97
2022-08-14T16:00:40.813Z,3.00
2022-08-14T16:03:37.254Z,4.40
2022-08-14T16:06:31.431Z,4.03
2022-08-14T16:09:16.799Z,3.22
2022-08-14T16:12:04.823Z,3.10
2022-08-14T16:14:49.960Z,3.75
2022-08-14T16:17:44.212Z,4.07
2022-08-14T16:20:42.348Z,4.10
2022-08-14T16:23:36.095Z,3.90
2022-08-14T16:26:30.080Z,4.07
2022-08-14T16:29:19.227Z,3.97
2022-08-14T16:32:32.600Z,4.90
2022-08-14T16:38:19.201Z,4.00
2022-08-14T16:41:18.015Z,4.68
2022-08-14T16:44:22.089Z,5.18
2022-08-14T16:47:17.669Z,4.20
2022-08-14T16:50:11.821Z,4.60
2022-08-14T16:53:01.309Z,4.75
2022-08-14T16:55:53.262Z,5.50
2022-08-14T16:58:40.814Z,5.10
2022-08-14T17:01:27.405Z,5.00
2022-08-14T17:04:24.816Z,4.18
2022-08-14T17:07:14.303Z,5.82
2022-08-14T17:10:09.735Z,6.10
2022-08-14T17:13:27.326Z,4.85
2022-08-14T17:16:36.947Z,5.30
2022-08-14T17:19:23.468Z,4.68
2022-08-14T17:22:14.014Z,5.22
2022-08-14T17:25:03.286Z,5.13
2022-08-14T17:28:52.657Z,4.60
2022-08-14T17:31:18.685Z,4.43
2022-08-14T17:34:04.568Z,4.60
2022-08-14T17:36:54.496Z,5.03
2022-08-14T17:39:40.937Z,4.30
2022-08-14T17:42:51.363Z,4.40
2022-08-14T17:45:42.883Z,5.60
2022-08-14T17:49:10.594Z,5.65
2022-08-14T17:51:58.721Z,4.53
2022-08-14T17:54:47.857Z,4.60
2022-08-14T17:57:41.171Z,5.57
2022-08-14T18:00:28.563Z,5.55
2022-08-14T18:03:18.512Z,4.75
2022-08-14T18:06:39.922Z,4.90
2022-08-14T18:09:29.631Z,4.35
2022-08-14T18:12:31.792Z,4.80
2022-08-14T18:15:17.938Z,5.00
2022-08-14T18:18:08.853Z,4.65
2022-08-14T18:21:39.751Z,4.80
2022-08-14T18:24:04.534Z,5.63
2022-08-14T18:27:22.832Z,4.90
2022-08-14T18:30:33.358Z,5.07
2022-08-14T18:33:21.073Z,4.60
2022-08-14T18:36:47.186Z,4.97
2022-08-14T18:39:34.578Z,4.80
2022-08-14T18:42:44.183Z,4.63
2022-08-14T18:45:32.643Z,5.13
2022-08-14T18:48:18.540Z,4.55
2022-08-14T18:51:07.314Z,4.78
2022-08-14T18:53:59.373Z,4.97
2022-08-14T18:57:00.855Z,5.10
2022-08-14T18:59:46.215Z,5.13
2022-08-14T19:02:42.335Z,5.32
2022-08-14T19:05:49.212Z,4.40
2022-08-14T19:08:38.883Z,5.80
2022-08-14T19:11:39.682Z,5.43
2022-08-14T19:14:45.507Z,5.30
2022-08-14T19:17:43.140Z,4.85
2022-08-14T19:20:52.927Z,5.32
2022-08-14T19:23:42.095Z,4.82
2022-08-14T19:26:35.797Z,5.63
2022-08-14T19:29:24.151Z,4.90
2022-08-14T19:32:36.566Z,4.70
2022-08-14T19:35:55.090Z,5.65
2022-08-14T19:38:52.071Z,5.53
2022-08-14T19:41:38.445Z,5.40
2022-08-14T19:44:31.755Z,6.78
2022-08-14T19:47:18.044Z,4.90
2022-08-14T19:50:24.519Z,5.40
2022-08-14T19:53:17.668Z,5.90
2022-08-14T19:56:04.769Z,6.00
2022-08-14T19:58:55.212Z,5.90
2022-08-14T20:01:43.286Z,5.28
2022-08-14T20:04:46.447Z,8.23
2022-08-14T20:07:59.225Z,6.13
2022-08-14T20:11:07.904Z,7.28
2022-08-14T20:14:00.362Z,5.30
2022-08-14T20:16:53.019Z,6.20
2022-08-14T20:19:41.808Z,5.70
2022-08-14T20:22:35.900Z,5.88
2022-08-14T20:25:23.434Z,6.07
2022-08-14T20:28:30.072Z,6.53
2022-08-14T20:31:18.643Z,6.65
2022-08-14T20:34:19.161Z,6.88
2022-08-14T20:37:14.820Z,6.20
2022-08-14T20:40:23.884Z,6.95
2022-08-14T20:43:52.859Z,6.20
2022-08-14T20:46:39.552Z,6.57
2022-08-14T20:49:30.221Z,6.10
2022-08-14T20:52:18.965Z,5.53
2022-08-14T20:55:32.352Z,6.68
2022-08-14T20:58:44.242Z,6.30
2022-08-14T21:01:33.679Z,6.22
2022-08-14T21:04:29.412Z,6.35
2022-08-14T21:07:25.530Z,7.30
2022-08-14T21:10:36.227Z,5.57
2022-08-14T21:14:19.555Z,5.90
2022-08-14T21:16:45.085Z,6.00
2022-08-14T21:19:45.457Z,5.00
2022-08-14T21:22:37.026Z,6.50
2022-08-14T21:25:22.693Z,6.15
2022-08-14T21:28:20.922Z,6.53
2022-08-14T21:31:15.116Z,7.05
2022-08-14T21:34:05.486Z,6.47
2022-08-14T21:37:09.742Z,6.82
2022-08-14T21:39:58.629Z,8.40
2022-08-14T21:42:44.003Z,6.38
2022-08-14T21:45:35.616Z,6.05
2022-08-14T21:48:25.068Z,6.65
2022-08-14T21:51:53.610Z,6.65
2022-08-14T21:54:31.981Z,7.03
2022-08-14T21:57:56.116Z,6.57
2022-08-14T22:00:36.304Z,8.23
2022-08-14T22:03:26.284Z,9.20
2022-08-14T22:06:20.721Z,8.57
2022-08-14T22:09:14.940Z,7.93
2022-08-14T22:12:08.673Z,7.93
2022-08-14T22:14:55.349Z,7.70
2022-08-14T22:17:44.161Z,8.20
2022-08-14T22:20:31.412Z,7.97
2022-08-14T22:23:16.566Z,8.20
2022-08-14T22:26:03.353Z,7.82
2022-08-14T22:28:48.752Z,7.03
2022-08-14T22:31:43.874Z,9.00
2022-08-14T22:34:29.451Z,7.53
2022-08-14T22:37:15.676Z,7.10
2022-08-14T22:40:43.135Z,6.53
2022-08-14T22:43:09.034Z,6.57
2022-08-14T22:45:55.770Z,7.13
2022-08-14T22:48:42.145Z,7.60
2022-08-14T22:51:28.113Z,7.07
2022-08-14T22:54:52.192Z,8.13
2022-08-14T22:57:19.580Z,7.60
2022-08-14T23:00:25.200Z,7.78
2022-08-14T23:03:17.534Z,7.43
2022-08-14T23:07:02.176Z,7.85
2022-08-14T23:09:34.976Z,7.53
2022-08-14T23:12:27.910Z,8.10
2022-08-14T23:15:17.705Z,7.82
2022-08-14T23:18:04.977Z,7.95
2022-08-14T23:20:52.660Z,7.93
2022-08-14T23:23:41.533Z,8.05
2022-08-14T23:26:47.671Z,8.93
2022-08-14T23:29:37.551Z,8.13
2022-08-14T23:32:25.030Z,8.87
2022-08-14T23:35:10.476Z,8.00
2022-08-14T23:38:01.654Z,7.50
2022-08-14T23:40:47.321Z,7.60
2022-08-14T23:43:32.485Z,8.00
2022-08-14T23:46:20.270Z,7.00
2022-08-14T23:49:06.172Z,7.18
2022-08-14T23:52:49.620Z,6.53
2022-08-14T23:54:57.322Z,6.65
2022-08-14T23:57:57.226Z,6.72
